Time;durP1;ratioP1;P1;durP2;ratioP2;P2;SDS_P1;SDS_P2;PMS_P1;PMS_P2;Temp;Humidity;BMP_temperature;BMP_pressure;BME280_temperature;BME280_humidity;BME280_pressure;Samples;Min_cycle;Max_cycle;Signal;HPM_P1;HPM_P2
2021/04/16 00:00:46;;;;;;;5.27;3.10;;;;;;;-0.81;71.58;96961.81;5070608;28;20970;-75
2021/04/16 00:03:13;;;;;;;6.93;4.47;;;;;;;-0.86;71.86;96957.81;5076608;28;20477;-75
2021/04/16 00:05:39;;;;;;;7.60;3.73;;;;;;;-0.74;71.19;96955.50;5085465;28;20523;-75
2021/04/16 00:08:07;;;;;;;6.10;3.03;;;;;;;-0.79;71.61;96944.53;5060154;28;20465;-75
2021/04/16 00:10:40;;;;;;;7.43;3.40;;;;;;;-0.75;70.76;96953.81;5061349;28;20870;-74
2021/04/16 00:13:06;;;;;;;7.10;3.80;;;;;;;-0.83;71.54;96948.16;5077219;28;20446;-75
2021/04/16 00:15:35;;;;;;;6.13;3.07;;;;;;;-0.88;71.72;96942.38;5058953;28;20471;-73
2021/04/16 00:18:10;;;;;;;6.53;3.53;;;;;;;-0.90;72.49;96941.63;5060510;28;20036;-74
2021/04/16 00:20:37;;;;;;;6.43;3.40;;;;;;;-0.91;72.68;96937.34;5051879;28;20463;-76
2021/04/16 00:23:04;;;;;;;7.80;3.27;;;;;;;-0.84;71.70;96940.47;5084457;28;20465;-76
2021/04/16 00:25:35;;;;;;;6.40;2.97;;;;;;;-0.83;72.38;96937.00;5071070;28;21197;-75
2021/04/16 00:28:03;;;;;;;6.23;3.13;;;;;;;-0.85;71.42;96937.06;5068248;28;20482;-75
2021/04/16 00:30:43;;;;;;;5.80;3.20;;;;;;;-0.87;71.72;96933.75;5077666;28;20445;-74
2021/04/16 00:33:10;;;;;;;7.17;3.40;;;;;;;-0.88;71.88;96938.97;5078976;28;20849;-75
2021/04/16 00:35:36;;;;;;;5.53;2.87;;;;;;;-0.86;72.16;96927.66;5063835;28;20478;-75
2021/04/16 00:38:09;;;;;;;5.40;2.73;;;;;;;-0.95;72.15;96928.91;5081572;28;20492;-75
2021/04/16 00:40:39;;;;;;;6.57;3.42;;;;;;;-0.93;72.71;96926.28;5061441;28;20498;-75
2021/04/16 00:43:13;;;;;;;5.90;3.17;;;;;;;-0.93;72.63;96928.84;5070772;28;20512;-74
2021/04/16 00:45:40;;;;;;;5.33;3.03;;;;;;;-0.97;72.83;96924.75;5059172;28;21234;-74
2021/04/16 00:48:14;;;;;;;5.77;2.93;;;;;;;-1.06;72.72;96925.16;5078545;28;20835;-74
2021/04/16 00:50:49;;;;;;;6.03;3.57;;;;;;;-1.05;72.80;96921.66;5063178;28;20446;-75
2021/04/16 00:53:17;;;;;;;8.03;3.30;;;;;;;-1.02;72.76;96918.94;5061242;28;20479;-74
2021/04/16 00:55:50;;;;;;;7.70;3.53;;;;;;;-1.05;73.07;96925.09;5075027;28;20462;-75
2021/04/16 00:58:17;;;;;;;8.10;3.53;;;;;;;-1.06;72.92;96920.00;5056641;28;20582;-75
2021/04/16 01:00:43;;;;;;;5.13;3.20;;;;;;;-1.07;72.95;96918.34;5069231;28;20458;-76
2021/04/16 01:03:16;;;;;;;7.90;3.57;;;;;;;-1.09;73.24;96917.56;5070870;28;20457;-76
2021/04/16 01:05:42;;;;;;;8.00;3.27;;;;;;;-1.20;74.12;96918.91;5069808;28;20479;-75
2021/04/16 01:08:20;;;;;;;5.60;3.00;;;;;;;-1.21;74.36;96917.22;5075520;28;20459;-74
2021/04/16 01:10:48;;;;;;;6.50;3.20;;;;;;;-1.16;74.14;96913.59;5068135;28;20454;-75
2021/04/16 01:13:14;;;;;;;8.73;2.70;;;;;;;-1.23;74.07;96918.22;5076429;28;20440;-75
2021/04/16 01:15:40;;;;;;;6.93;3.23;;;;;;;-1.23;74.44;96908.72;5078556;28;20474;-74
2021/04/16 01:18:11;;;;;;;7.80;3.67;;;;;;;-1.33;74.30;96910.03;5072876;28;20053;-75
2021/04/16 01:20:40;;;;;;;5.53;2.87;;;;;;;-1.33;74.68;96912.63;5074230;28;20977;-75
2021/04/16 01:23:26;;;;;;;5.67;3.00;;;;;;;-1.31;74.38;96910.81;5075555;28;20435;-75
2021/04/16 01:25:55;;;;;;;5.90;3.00;;;;;;;-1.33;74.74;96912.63;5076830;28;20527;-74
2021/04/16 01:28:21;;;;;;;6.87;3.37;;;;;;;-1.34;74.16;96913.53;5079104;28;20466;-74
2021/04/16 01:31:02;;;;;;;6.00;3.27;;;;;;;-1.37;74.32;96905.94;5076115;28;20536;-75
2021/04/16 01:33:30;;;;;;;6.97;4.03;;;;;;;-1.38;74.33;96903.41;5084310;28;20497;-74
2021/04/16 01:35:56;;;;;;;6.27;3.23;;;;;;;-1.41;74.47;96899.22;5073678;28;20454;-74
2021/04/16 01:38:22;;;;;;;6.10;3.10;;;;;;;-1.37;74.08;96897.38;5078863;28;21263;-74
2021/04/16 01:40:49;;;;;;;6.83;3.40;;;;;;;-1.45;74.47;96898.53;5072509;28;20455;-74
2021/04/16 01:43:25;;;;;;;6.47;3.20;;;;;;;-1.43;74.21;96895.88;5068795;28;20463;-75
2021/04/16 01:46:20;;;;;;;5.70;2.83;;;;;;;-1.45;74.16;96890.78;5034316;28;20470;-74
2021/04/16 01:48:55;;;;;;;6.57;3.13;;;;;;;-1.51;74.83;96892.81;5060231;28;20854;-75
2021/04/16 01:51:34;;;;;;;7.10;3.20;;;;;;;-1.51;74.68;96890.22;5058227;28;20553;-75
2021/04/16 01:54:11;;;;;;;5.67;3.07;;;;;;;-1.50;74.31;96887.59;5051068;28;20468;-74
2021/04/16 01:56:40;;;;;;;6.50;3.13;;;;;;;-1.48;74.87;96888.34;5067267;28;20801;-75
2021/04/16 01:59:19;;;;;;;7.70;3.30;;;;;;;-1.51;74.92;96883.34;5063403;28;20449;-74
2021/04/16 02:01:51;;;;;;;6.30;3.30;;;;;;;-1.58;75.05;96881.94;5069951;28;20570;-75
2021/04/16 02:04:19;;;;;;;10.03;3.67;;;;;;;-1.55;75.14;96875.78;5047792;28;20037;-73
2021/04/16 02:06:51;;;;;;;7.57;3.53;;;;;;;-1.67;75.28;96878.03;5072611;28;20438;-74
2021/04/16 02:09:23;;;;;;;5.43;3.10;;;;;;;-1.71;75.53;96875.63;5076068;28;20465;-74
2021/04/16 02:11:56;;;;;;;7.67;3.60;;;;;;;-1.74;75.35;96880.97;5075166;28;20478;-74
2021/04/16 02:14:25;;;;;;;6.70;3.43;;;;;;;-1.73;75.65;96875.72;5082681;28;20523;-75
2021/04/16 02:16:55;;;;;;;6.03;3.20;;;;;;;-1.77;75.74;96869.03;5054389;28;20492;-74
2021/04/16 02:19:21;;;;;;;7.57;3.63;;;;;;;-1.76;75.56;96869.88;5070925;28;20459;-74
2021/04/16 02:21:47;;;;;;;6.23;3.07;;;;;;;-1.76;76.06;96877.59;5077119;28;20423;-74
2021/04/16 02:24:14;;;;;;;5.43;2.93;;;;;;;-1.77;75.81;96878.53;5074590;28;21279;-74
2021/04/16 02:26:40;;;;;;;9.93;3.30;;;;;;;-1.80;75.88;96876.91;5071474;28;20107;-75
2021/04/16 02:29:07;;;;;;;6.13;3.03;;;;;;;-1.83;76.11;96877.03;5065993;28;20845;-74
2021/04/16 02:31:33;;;;;;;8.00;3.70;;;;;;;-1.84;76.22;96871.97;5074382;28;20523;-74
2021/04/16 02:34:05;;;;;;;8.23;3.90;;;;;;;-1.96;76.29;96874.16;5074512;28;20459;-75
2021/04/16 02:36:30;;;;;;;12.43;4.83;;;;;;;-2.08;76.77;96877.25;5056601;28;20033;-75
2021/04/16 02:38:56;;;;;;;8.50;3.97;;;;;;;-2.04;76.80;96875.41;5074652;28;21223;-74
2021/04/16 02:41:22;;;;;;;6.93;3.73;;;;;;;-2.04;76.68;96872.84;5061894;28;20024;-75
2021/04/16 02:43:50;;;;;;;8.13;4.10;;;;;;;-2.14;76.43;96878.38;5059555;28;20024;-75
2021/04/16 02:46:16;;;;;;;9.47;4.03;;;;;;;-2.17;77.40;96877.66;5080084;28;20461;-76
2021/04/16 02:48:47;;;;;;;7.10;3.63;;;;;;;-2.19;77.91;96870.00;5060253;28;20443;-75
2021/04/16 02:51:13;;;;;;;6.63;4.50;;;;;;;-2.21;77.55;96874.38;5076780;28;20997;-74
2021/04/16 02:53:38;;;;;;;7.97;4.03;;;;;;;-2.29;78.05;96873.03;5058621;28;20455;-75
2021/04/16 02:56:04;;;;;;;7.50;3.63;;;;;;;-2.39;78.53;96875.16;5075526;28;20031;-74
2021/04/16 02:58:30;;;;;;;9.33;3.87;;;;;;;-2.33;77.69;96866.34;5075855;28;20165;-74
2021/04/16 03:00:56;;;;;;;7.93;4.17;;;;;;;-2.33;77.99;96866.34;5068209;28;20032;-74
2021/04/16 03:03:27;;;;;;;9.10;3.83;;;;;;;-2.34;77.72;96860.34;5057317;28;20033;-75
2021/04/16 03:05:59;;;;;;;7.33;3.97;;;;;;;-2.32;77.59;96857.69;5078272;28;20473;-75
2021/04/16 03:08:32;;;;;;;8.80;4.13;;;;;;;-2.38;78.27;96854.50;5082610;28;20093;-75
2021/04/16 03:10:58;;;;;;;7.73;4.13;;;;;;;-2.37;77.67;96855.34;5071966;28;20443;-75
2021/04/16 03:13:29;;;;;;;8.83;4.33;;;;;;;-2.52;78.08;96861.94;5076667;28;20443;-75
2021/04/16 03:15:56;;;;;;;7.27;4.20;;;;;;;-2.45;78.34;96858.25;5060724;28;20030;-75
2021/04/16 03:18:21;;;;;;;8.70;3.80;;;;;;;-2.44;77.79;96849.59;5075311;28;20426;-74
2021/04/16 03:20:47;;;;;;;8.57;4.70;;;;;;;-2.41;77.29;96852.06;5086879;28;20995;-74
2021/04/16 03:23:13;;;;;;;8.60;4.57;;;;;;;-2.41;77.14;96851.22;5083643;28;20028;-75
2021/04/16 03:25:39;;;;;;;6.73;3.60;;;;;;;-2.54;77.22;96852.63;5051304;28;20720;-76
2021/04/16 03:28:05;;;;;;;8.53;3.90;;;;;;;-2.56;78.18;96855.25;5058449;28;20043;-74
2021/04/16 03:30:32;;;;;;;9.63;4.80;;;;;;;-2.54;78.14;96850.06;5078382;28;21292;-74
2021/04/16 03:32:58;;;;;;;9.87;5.00;;;;;;;-2.59;78.11;96844.25;5066631;28;20452;-75
2021/04/16 03:35:24;;;;;;;9.63;5.10;;;;;;;-2.69;78.05;96849.78;5054891;28;20467;-74
2021/04/16 03:37:50;;;;;;;9.23;5.43;;;;;;;-2.71;78.05;96850.75;5083984;28;20038;-74
2021/04/16 03:40:20;;;;;;;11.67;5.10;;;;;;;-2.71;78.90;96851.59;5067354;28;20033;-75
2021/04/16 03:42:46;;;;;;;7.87;4.37;;;;;;;-2.74;78.86;96856.84;5072904;28;20430;-75
2021/04/16 03:45:15;;;;;;;9.80;5.00;;;;;;;-2.75;79.34;96854.34;5064958;28;20446;-74
2021/04/16 03:47:43;;;;;;;12.93;5.90;;;;;;;-2.75;79.07;96855.19;5086582;28;20032;-74
2021/04/16 03:50:09;;;;;;;12.07;6.20;;;;;;;-2.79;79.14;96851.03;5061795;28;20446;-74
2021/04/16 03:52:41;;;;;;;12.50;6.60;;;;;;;-2.77;79.34;96851.84;5061816;28;20464;-73
2021/04/16 03:55:08;;;;;;;11.93;6.80;;;;;;;-2.74;79.16;96850.88;5057490;28;20486;-74
2021/04/16 03:57:34;;;;;;;14.37;5.37;;;;;;;-2.79;78.96;96848.47;5053947;28;20458;-74
2021/04/16 04:00:00;;;;;;;12.47;5.50;;;;;;;-2.91;79.73;96854.13;5077718;28;20870;-73
2021/04/16 04:02:26;;;;;;;14.27;6.73;;;;;;;-2.97;80.03;96849.22;5078149;28;20021;-75
2021/04/16 04:04:51;;;;;;;12.53;7.70;;;;;;;-2.92;80.04;96848.16;5071041;28;20835;-74
2021/04/16 04:07:17;;;;;;;11.10;5.73;;;;;;;-2.87;79.64;96848.78;5073305;28;20069;-75
2021/04/16 04:09:43;;;;;;;9.20;4.93;;;;;;;-2.89;79.33;96849.75;5070649;28;20056;-74
2021/04/16 04:12:10;;;;;;;8.60;4.60;;;;;;;-2.87;79.75;96851.38;5070439;28;20103;-75
2021/04/16 04:14:35;;;;;;;7.30;3.63;;;;;;;-2.88;79.78;96841.97;5081210;28;20041;-74
2021/04/16 04:17:03;;;;;;;7.93;3.93;;;;;;;-2.89;79.27;96849.75;5082316;28;20442;-74
2021/04/16 04:19:31;;;;;;;8.03;3.93;;;;;;;-2.91;78.96;96852.41;5057928;28;20051;-74
2021/04/16 04:21:58;;;;;;;9.40;4.17;;;;;;;-2.87;79.28;96851.38;5089706;28;20442;-74
2021/04/16 04:24:24;;;;;;;7.30;4.03;;;;;;;-2.84;78.93;96850.41;5082655;28;20473;-74
2021/04/16 04:26:50;;;;;;;10.00;5.60;;;;;;;-2.82;79.11;96856.31;5067841;28;20469;-75
2021/04/16 04:29:25;;;;;;;14.43;8.17;;;;;;;-2.79;79.33;96848.47;5065046;28;20036;-74
2021/04/16 04:31:51;;;;;;;9.07;5.30;;;;;;;-2.74;79.82;96846.56;5065896;28;20466;-74
2021/04/16 04:34:21;;;;;;;8.10;4.53;;;;;;;-2.76;79.93;96858.66;5074546;28;21022;-75
2021/04/16 04:36:49;;;;;;;9.03;5.00;;;;;;;-2.76;80.04;96858.66;5081531;28;21001;-75
2021/04/16 04:39:15;;;;;;;8.97;4.77;;;;;;;-2.73;79.50;96866.25;5061397;28;20451;-75
2021/04/16 04:41:41;;;;;;;7.40;4.60;;;;;;;-2.74;79.94;96856.03;5065022;28;20463;-74
2021/04/16 04:44:08;;;;;;;9.47;4.83;;;;;;;-2.75;80.05;96857.78;5079759;28;20442;-74
2021/04/16 04:46:39;;;;;;;11.50;5.30;;;;;;;-2.61;80.25;96862.34;5069397;28;20033;-77
2021/04/16 04:49:07;;;;;;;10.40;4.90;;;;;;;-2.61;79.89;96868.34;5072067;28;20904;-75
2021/04/16 04:51:34;;;;;;;24.93;14.30;;;;;;;-2.62;79.93;96865.81;5066022;28;20463;-75
2021/04/16 04:54:00;;;;;;;14.63;7.23;;;;;;;-2.54;79.45;96868.91;5043187;28;20470;-75
2021/04/16 04:56:32;;;;;;;12.73;6.17;;;;;;;-2.46;79.59;96871.16;5076243;28;20426;-75
2021/04/16 04:58:58;;;;;;;9.50;5.77;;;;;;;-2.50;79.99;96862.72;5068340;28;20450;-73
2021/04/16 05:01:23;;;;;;;9.63;5.03;;;;;;;-2.52;80.31;96871.41;5077185;28;20020;-75
2021/04/16 05:03:49;;;;;;;8.80;4.73;;;;;;;-2.53;79.96;96867.16;5062168;28;20028;-74
2021/04/16 05:06:14;;;;;;;9.97;5.30;;;;;;;-2.41;79.81;96869.25;5083271;28;20024;-75
2021/04/16 05:08:40;;;;;;;10.73;6.00;;;;;;;-2.34;79.61;96869.81;5078664;28;20553;-75
2021/04/16 05:11:08;;;;;;;9.57;4.60;;;;;;;-2.23;79.35;96868.47;5052406;28;20504;-74
2021/04/16 05:13:34;;;;;;;8.43;4.23;;;;;;;-2.26;79.40;96867.75;5054728;28;20036;-76
2021/04/16 05:16:00;;;;;;;8.93;4.17;;;;;;;-2.24;79.11;96871.94;5063760;28;21248;-74
2021/04/16 05:18:38;;;;;;;9.03;5.10;;;;;;;-2.11;78.63;96869.69;5073813;28;21109;-74
2021/04/16 05:21:05;;;;;;;8.13;4.37;;;;;;;-2.17;79.35;96872.53;5067647;28;20447;-74
2021/04/16 05:23:31;;;;;;;9.10;4.93;;;;;;;-2.13;79.21;96869.72;5058165;28;20466;-74
2021/04/16 05:25:57;;;;;;;8.87;4.23;;;;;;;-2.01;79.15;96867.50;5070935;28;20470;-75
2021/04/16 05:28:22;;;;;;;7.47;4.80;;;;;;;-1.91;79.00;96871.41;5068878;28;20469;-76
2021/04/16 05:30:48;;;;;;;11.13;5.80;;;;;;;-1.94;79.28;96871.53;5067700;28;20154;-76
2021/04/16 05:33:16;;;;;;;6.87;4.07;;;;;;;-1.81;78.77;96864.94;5050037;28;20028;-75
2021/04/16 05:35:43;;;;;;;8.83;4.03;;;;;;;-1.73;78.43;96870.56;5083781;28;20805;-75
2021/04/16 05:38:09;;;;;;;12.23;4.40;;;;;;;-1.82;78.38;96872.72;5046597;28;20498;-75
2021/04/16 05:40:35;;;;;;;7.13;4.33;;;;;;;-1.64;78.68;96873.63;5041648;28;20529;-75
2021/04/16 05:43:00;;;;;;;8.17;4.00;;;;;;;-1.84;78.54;96872.78;5068354;28;21136;-74
2021/04/16 05:45:26;;;;;;;9.53;4.03;;;;;;;-1.76;78.24;96877.59;5065609;28;20470;-74
2021/04/16 05:48:04;;;;;;;7.93;3.73;;;;;;;-1.74;78.34;96879.22;5068471;28;20020;-74
2021/04/16 05:50:29;;;;;;;6.90;3.87;;;;;;;-1.66;78.29;96871.97;5047223;28;20036;-74
2021/04/16 05:52:55;;;;;;;9.00;4.33;;;;;;;-1.74;78.57;96874.06;5059283;28;20559;-74
2021/04/16 05:55:21;;;;;;;9.03;4.57;;;;;;;-1.49;77.86;96875.53;5075540;28;20055;-74
2021/04/16 05:57:47;;;;;;;10.50;4.20;;;;;;;-1.58;78.01;96876.75;5080196;28;20548;-74
2021/04/16 06:00:19;;;;;;;10.03;4.37;;;;;;;-1.67;77.72;96885.78;5079538;28;20028;-74
2021/04/16 06:02:47;;;;;;;9.67;5.30;;;;;;;-1.69;79.40;96879.84;5075567;28;20510;-75
2021/04/16 06:05:17;;;;;;;8.73;4.77;;;;;;;-1.43;78.21;96885.56;5078278;28;20472;-74
2021/04/16 06:07:42;;;;;;;6.60;4.10;;;;;;;-1.45;78.61;96883.03;5069297;28;20494;-75
2021/04/16 06:10:11;;;;;;;9.30;4.93;;;;;;;-1.29;78.50;96883.19;5076714;28;21085;-73
2021/04/16 06:12:37;;;;;;;7.77;4.33;;;;;;;-1.26;78.57;96888.22;5048541;28;20144;-75
2021/04/16 06:15:10;;;;;;;7.93;4.67;;;;;;;-1.28;78.69;96887.44;5063965;28;20473;-73
2021/04/16 06:17:37;;;;;;;18.52;9.48;;;;;;;-1.39;79.55;96881.94;5085492;28;20463;-74
2021/04/16 06:20:04;;;;;;;10.33;5.87;;;;;;;-1.35;79.84;96883.47;5075206;28;20031;-74
2021/04/16 06:22:29;;;;;;;22.63;13.53;;;;;;;-1.39;79.57;96887.09;5063006;28;20523;-75
2021/04/16 06:25:01;;;;;;;21.00;11.50;;;;;;;-1.00;79.68;96884.41;5082490;28;20454;-73
2021/04/16 06:27:27;;;;;;;13.27;8.03;;;;;;;-0.95;79.34;96891.94;5071210;28;20974;-74
2021/04/16 06:29:52;;;;;;;11.33;5.70;;;;;;;-0.94;79.46;96883.28;5067039;28;20142;-74
2021/04/16 06:32:20;;;;;;;12.47;5.40;;;;;;;-0.84;79.66;96884.53;5059012;28;20488;-74
2021/04/16 06:34:46;;;;;;;11.43;4.70;;;;;;;-0.72;79.41;96883.94;5058126;28;20048;-74
2021/04/16 06:37:24;;;;;;;10.97;5.93;;;;;;;-0.69;78.72;96879.53;5075118;28;20497;-74
2021/04/16 06:39:50;;;;;;;13.73;5.10;;;;;;;-0.61;79.11;96879.97;5076045;28;20028;-74
2021/04/16 06:42:29;;;;;;;10.80;5.43;;;;;;;-0.78;79.11;96876.47;5049098;28;20458;-73
2021/04/16 06:45:03;;;;;;;9.80;5.60;;;;;;;-0.76;78.93;96873.81;5057943;28;20036;-74
2021/04/16 06:47:38;;;;;;;11.10;6.10;;;;;;;-0.45;78.59;96872.31;5083308;28;20523;-74
2021/04/16 06:50:06;;;;;;;9.30;5.00;;;;;;;-0.28;77.89;96873.16;5068054;28;20477;-73
2021/04/16 06:52:42;;;;;;;14.63;6.17;;;;;;;-0.31;77.77;96868.13;5036934;28;20463;-74
2021/04/16 06:55:17;;;;;;;10.50;5.27;;;;;;;-0.18;77.64;96875.28;5068326;28;20876;-74
2021/04/16 06:57:53;;;;;;;10.53;5.73;;;;;;;-0.29;77.83;96879.25;5065327;28;20459;-74
2021/04/16 07:00:30;;;;;;;11.07;5.47;;;;;;;-0.08;77.33;96868.72;5074384;28;20471;-74
2021/04/16 07:03:15;;;;;;;11.97;6.30;;;;;;;0.09;76.21;96881.63;5073147;28;21073;-74
2021/04/16 07:05:52;;;;;;;12.60;5.60;;;;;;;0.04;78.20;96875.03;5059004;28;20488;-74
2021/04/16 07:08:45;;;;;;;8.77;5.23;;;;;;;0.16;77.40;96882.13;5063477;28;21029;-75
2021/04/16 07:11:37;;;;;;;16.67;9.60;;;;;;;0.35;76.72;96866.50;5074121;28;20467;-74
2021/04/16 07:14:06;;;;;;;7.40;4.77;;;;;;;0.35;77.96;96877.69;5042260;28;20578;-75
2021/04/16 07:16:34;;;;;;;10.47;6.07;;;;;;;0.48;76.62;96872.69;5064651;28;20823;-74
2021/04/16 07:19:14;;;;;;;8.40;5.33;;;;;;;0.59;77.00;96875.53;5066162;28;20495;-75
2021/04/16 07:21:39;;;;;;;16.20;6.13;;;;;;;0.64;75.94;96873.56;5076842;28;20535;-75
2021/04/16 07:24:06;;;;;;;8.57;5.27;;;;;;;0.56;76.46;96873.09;5061885;28;20450;-75
2021/04/16 07:26:39;;;;;;;10.83;6.13;;;;;;;0.74;76.19;96873.91;5048996;28;20064;-74
2021/04/16 07:29:06;;;;;;;8.70;5.27;;;;;;;0.77;76.30;96878.91;5046324;28;20506;-73
2021/04/16 07:31:42;;;;;;;9.83;5.53;;;;;;;0.89;77.41;96879.97;5062390;28;20470;-74
2021/04/16 07:34:28;;;;;;;9.93;5.63;;;;;;;1.04;75.90;96886.91;5067363;28;20529;-75
2021/04/16 07:37:14;;;;;;;8.13;5.07;;;;;;;1.07;75.99;96881.53;5066495;28;20474;-75
2021/04/16 07:40:08;;;;;;;9.40;4.87;;;;;;;1.00;76.26;96893.16;5043954;28;20472;-75
2021/04/16 07:42:46;;;;;;;5.90;3.90;;;;;;;0.94;75.89;96885.75;5061424;28;21117;-74
2021/04/16 07:45:24;;;;;;;9.07;5.73;;;;;;;1.13;76.12;96882.97;5069407;28;20036;-74
2021/04/16 07:47:52;;;;;;;9.07;5.47;;;;;;;1.50;75.01;96886.91;5085903;28;20458;-74
2021/04/16 07:50:40;;;;;;;11.10;5.87;;;;;;;1.29;75.38;96882.94;5060153;28;20463;-74
2021/04/16 07:53:35;;;;;;;8.70;5.37;;;;;;;1.24;75.29;96892.72;5050242;28;21054;-75
2021/04/16 07:56:09;;;;;;;;;;;;;;;1.48;75.01;96880.16;5066076;28;20494;-75
2021/04/16 07:58:35;;;;;;;11.77;5.93;;;;;;;1.44;76.36;96884.66;5063687;28;19923;-74
2021/04/16 08:01:13;;;;;;;8.97;5.17;;;;;;;1.33;75.66;96887.03;5065624;28;20448;-74
2021/04/16 08:03:52;;;;;;;14.57;7.23;;;;;;;1.38;76.64;96882.44;5063090;28;20032;-74
2021/04/16 08:06:27;;;;;;;10.57;6.53;;;;;;;1.32;76.00;96887.97;5062644;28;20467;-74
2021/04/16 08:08:53;;;;;;;11.50;7.77;;;;;;;1.26;78.00;96890.88;5069694;28;21054;-74
2021/04/16 08:11:25;;;;;;;11.23;7.67;;;;;;;0.82;79.20;96895.00;5072048;28;20459;-74
2021/04/16 08:14:05;;;;;;;14.37;10.40;;;;;;;0.92;80.67;96891.00;5068766;28;20568;-75
2021/04/16 08:16:39;;;;;;;14.97;10.97;;;;;;;1.23;79.09;96891.06;5052343;28;20847;-76
2021/04/16 08:19:16;;;;;;;9.47;5.97;;;;;;;0.89;79.58;96895.50;5079257;28;20449;-73
2021/04/16 08:21:46;;;;;;;12.73;7.83;;;;;;;1.05;79.79;96888.56;5085159;28;20542;-74
2021/04/16 08:24:20;;;;;;;9.63;6.10;;;;;;;1.62;77.64;96898.34;5065634;28;20469;-75
2021/04/16 08:26:57;;;;;;;8.53;5.93;;;;;;;1.64;77.52;96897.34;5069306;28;20922;-74
2021/04/16 08:29:30;;;;;;;8.60;5.93;;;;;;;1.83;76.67;96889.31;5076505;28;20477;-75
2021/04/16 08:32:13;;;;;;;8.30;5.60;;;;;;;1.55;77.14;96892.69;5047900;28;20535;-74
2021/04/16 08:34:52;;;;;;;9.57;7.18;;;;;;;2.08;77.50;96896.50;5070228;28;21132;-75
2021/04/16 08:37:29;;;;;;;9.87;6.07;;;;;;;2.30;76.30;96890.03;5071068;28;20120;-74
2021/04/16 08:39:56;;;;;;;10.13;7.17;;;;;;;2.08;76.47;96899.09;5067119;28;20479;-74
2021/04/16 08:42:33;;;;;;;9.20;6.97;;;;;;;1.92;77.09;96890.56;5064210;28;20455;-75
2021/04/16 08:45:26;;;;;;;10.63;7.60;;;;;;;1.91;78.48;96895.81;5064412;28;20462;-74
2021/04/16 08:48:14;;;;;;;9.17;6.37;;;;;;;1.88;76.37;96899.44;5068026;28;20477;-74
2021/04/16 08:50:47;;;;;;;9.97;6.50;;;;;;;1.75;77.98;96898.47;5074020;28;20459;-75
2021/04/16 08:53:14;;;;;;;9.38;6.50;;;;;;;1.83;78.80;96901.44;5058454;28;20476;-74
2021/04/16 08:55:42;;;;;;;9.57;6.53;;;;;;;1.93;77.74;96901.75;5058381;28;20112;-75
2021/04/16 08:58:26;;;;;;;10.87;6.97;;;;;;;2.18;76.47;96903.72;5080800;28;20558;-74
2021/04/16 09:00:59;;;;;;;12.07;7.25;;;;;;;2.30;75.87;96895.22;5071272;28;20482;-75
2021/04/16 09:03:38;;;;;;;9.83;6.80;;;;;;;2.21;74.97;96901.78;5070335;28;20044;-75
2021/04/16 09:06:11;;;;;;;10.83;7.23;;;;;;;2.49;75.60;96888.00;5065547;28;20567;-74
2021/04/16 09:08:40;;;;;;;9.83;6.53;;;;;;;2.78;74.73;96890.56;5070117;28;20467;-75
2021/04/16 09:11:09;;;;;;;9.30;6.00;;;;;;;2.36;74.51;96900.03;5064274;28;20483;-74
2021/04/16 09:13:41;;;;;;;9.93;6.67;;;;;;;2.09;74.63;96895.56;5073339;28;20471;-73
2021/04/16 09:16:16;;;;;;;8.77;5.97;;;;;;;2.16;74.82;96905.59;5053713;28;20474;-75
2021/04/16 09:18:49;;;;;;;11.37;6.90;;;;;;;2.38;74.20;96898.16;5048882;28;20467;-75
2021/04/16 09:21:30;;;;;;;9.30;6.32;;;;;;;2.50;74.96;96902.63;5049293;28;21007;-75
2021/04/16 09:23:56;;;;;;;8.70;5.20;;;;;;;2.67;73.61;96899.00;5069982;28;20037;-75
2021/04/16 09:26:43;;;;;;;9.07;5.73;;;;;;;2.48;73.07;96895.84;5071396;28;20459;-75
2021/04/16 09:29:28;;;;;;;7.93;4.53;;;;;;;2.44;71.54;96903.00;5070751;28;20037;-76
2021/04/16 09:32:02;;;;;;;7.17;4.80;;;;;;;2.81;70.76;96898.16;5062575;28;20468;-75
2021/04/16 09:34:43;;;;;;;7.83;4.60;;;;;;;2.62;70.34;96903.66;5084565;28;20466;-75
2021/04/16 09:37:28;;;;;;;9.00;4.93;;;;;;;3.32;68.62;96901.03;5066381;28;20562;-73
2021/04/16 09:43:09;;;;;;;7.30;4.63;;;;;;;3.43;67.97;96892.53;5062415;28;20469;-74
2021/04/16 09:45:35;;;;;;;7.47;4.83;;;;;;;3.57;67.24;96889.03;5062587;28;20471;-75
2021/04/16 09:48:09;;;;;;;7.90;4.80;;;;;;;3.24;68.67;96890.25;5052314;28;20459;-74
2021/04/16 09:50:47;;;;;;;6.77;4.67;;;;;;;3.05;68.70;96894.03;5069121;28;20028;-76
2021/04/16 09:53:22;;;;;;;7.07;4.43;;;;;;;2.90;70.37;96895.00;5057966;28;20463;-76
2021/04/16 09:55:53;;;;;;;6.87;4.53;;;;;;;3.49;67.31;96887.75;5069997;28;20463;-75
2021/04/16 09:58:31;;;;;;;7.67;4.40;;;;;;;5.08;62.53;96880.44;5051432;28;20497;-75
2021/04/16 10:01:16;;;;;;;7.30;4.77;;;;;;;6.31;57.63;96878.31;5060923;28;22047;-75
2021/04/16 10:03:58;;;;;;;7.03;4.40;;;;;;;5.93;58.92;96880.38;5066132;28;20464;-74
2021/04/16 10:06:35;;;;;;;6.47;4.17;;;;;;;5.87;57.41;96874.63;5054411;28;21134;-76
2021/04/16 10:09:16;;;;;;;5.93;3.70;;;;;;;5.97;55.68;96867.00;5068010;28;20028;-75
2021/04/16 10:11:52;;;;;;;6.20;3.50;;;;;;;6.62;54.08;96855.06;5051277;28;20028;-75
2021/04/16 10:14:35;;;;;;;6.33;3.80;;;;;;;6.16;57.02;96865.59;5058751;28;20045;-76
2021/04/16 10:17:02;;;;;;;5.63;3.85;;;;;;;6.15;56.39;96856.94;5063788;28;20179;-75
2021/04/16 10:19:32;;;;;;;6.07;3.87;;;;;;;4.77;59.42;96866.16;5066110;28;20393;-75
2021/04/16 10:22:28;;;;;;;6.13;3.50;;;;;;;3.76;60.97;96871.28;5055132;28;20024;-74
2021/04/16 12:38:36;;;;;;;5.37;2.70;;;;;;;5.19;56.73;96857.03;5071152;28;20450;-76
2021/04/16 12:41:06;;;;;;;6.60;3.37;;;;;;;5.19;57.36;96850.03;5047122;28;20037;-75
2021/04/16 12:43:34;;;;;;;5.63;2.90;;;;;;;4.98;57.29;96854.19;5071475;28;20489;-76
2021/04/16 12:46:00;;;;;;;4.80;3.00;;;;;;;5.08;57.23;96854.38;5080896;28;20024;-78
2021/04/16 12:48:26;;;;;;;4.00;2.67;;;;;;;4.78;57.58;96845.19;5083309;28;20035;-76
2021/04/16 12:50:53;;;;;;;4.50;2.70;;;;;;;4.63;57.07;96848.88;5049673;28;20021;-77
2021/04/16 12:53:19;;;;;;;5.70;3.10;;;;;;;4.92;56.36;96852.84;5049599;28;20029;-77
2021/04/16 12:55:45;;;;;;;4.43;2.60;;;;;;;4.95;56.27;96847.41;5054606;28;20133;-75
2021/04/16 12:58:28;;;;;;;4.90;2.87;;;;;;;5.16;55.91;96846.81;5067135;28;20031;-76
2021/04/16 13:01:02;;;;;;;5.23;3.10;;;;;;;5.29;55.69;96844.16;5076098;28;20028;-76
2021/04/16 13:03:35;;;;;;;4.63;2.77;;;;;;;5.03;56.37;96846.03;5073790;28;20039;-77
2021/04/16 13:06:01;;;;;;;6.40;2.65;;;;;;;5.13;57.41;96844.44;5060189;28;20070;-76
2021/04/16 13:08:27;;;;;;;3.90;2.40;;;;;;;5.43;56.11;96842.22;5071506;28;20035;-76
2021/04/16 13:10:53;;;;;;;4.17;2.53;;;;;;;5.77;55.54;96839.72;5054173;28;20251;-77
2021/04/16 13:13:19;;;;;;;5.37;2.40;;;;;;;5.90;54.90;96832.66;5055390;28;20456;-76
2021/04/16 13:15:50;;;;;;;6.90;2.97;;;;;;;5.78;54.45;96833.56;5064982;28;20052;-76
2021/04/16 13:18:31;;;;;;;5.97;2.67;;;;;;;5.99;54.34;96831.13;5070355;28;20275;-76
2021/04/16 13:20:57;;;;;;;5.20;2.63;;;;;;;6.10;54.04;96832.94;5059969;28;20028;-77
2021/04/16 13:23:23;;;;;;;3.67;2.40;;;;;;;6.08;53.06;96824.41;5068855;28;20036;-76
2021/04/16 13:25:49;;;;;;;5.60;3.10;;;;;;;6.00;52.78;96825.00;5058454;28;20043;-77
2021/04/16 13:28:14;;;;;;;11.40;9.00;;;;;;;6.02;53.97;96814.41;5063194;28;20032;-75
2021/04/16 13:30:40;;;;;;;3.97;2.30;;;;;;;6.01;53.07;96818.81;5068476;28;20090;-76
2021/04/16 13:33:17;;;;;;;4.00;2.53;;;;;;;6.06;51.99;96815.84;5074548;28;20557;-77
2021/04/16 13:35:54;;;;;;;4.10;2.60;;;;;;;6.09;51.50;96810.38;5076471;28;20093;-75
2021/04/16 13:38:29;;;;;;;4.40;2.30;;;;;;;5.40;53.66;96815.53;5054523;28;20068;-77
2021/04/16 13:40:57;;;;;;;3.93;2.30;;;;;;;5.53;54.47;96807.63;5057249;28;20122;-76
2021/04/16 13:43:23;;;;;;;4.03;2.30;;;;;;;5.84;53.29;96801.78;5052693;28;20067;-76
2021/04/16 13:45:50;;;;;;;4.80;2.50;;;;;;;5.98;52.70;96795.53;5075745;28;20027;-76
2021/04/16 13:48:17;;;;;;;5.97;2.80;;;;;;;5.42;53.62;96800.59;5062750;28;20056;-77
2021/04/16 13:50:49;;;;;;;3.80;2.40;;;;;;;5.13;54.33;96800.97;5083312;28;20039;-76
2021/04/16 13:53:15;;;;;;;3.87;2.60;;;;;;;5.12;54.46;96798.47;5060577;28;20410;-77
2021/04/16 13:55:41;;;;;;;4.77;2.43;;;;;;;5.15;54.30;96793.84;5068804;28;20554;-77
2021/04/16 13:58:07;;;;;;;5.40;3.00;;;;;;;5.20;53.99;96796.97;5053525;28;20037;-77
2021/04/16 14:00:40;;;;;;;4.77;2.30;;;;;;;5.64;53.06;96789.41;5070712;28;20076;-77
2021/04/16 14:03:27;;;;;;;4.03;2.63;;;;;;;5.52;52.51;96780.72;5089177;28;20042;-76
2021/04/16 14:05:56;;;;;;;3.23;2.13;;;;;;;5.93;52.77;96778.56;5053620;28;20037;-76
2021/04/16 14:08:30;;;;;;;4.47;2.20;;;;;;;6.06;52.23;96787.94;5059823;28;20032;-77